sensor_id;sensor_type;location;lat;lon;timestamp;P1;durP1;ratioP1;P2;durP2;ratioP2
12962;SDS011;6546;49.882;8.666;2023-03-01T00:00:38;12.97;;;9.90;;
12962;SDS011;6546;49.882;8.666;2023-03-01T00:03:05;12.50;;;9.93;;
12962;SDS011;6546;49.882;8.666;2023-03-01T00:05:32;12.17;;;10.10;;
12962;SDS011;6546;49.882;8.666;2023-03-01T00:08:00;13.97;;;9.50;;
12962;SDS011;6546;49.882;8.666;2023-03-01T00:10:27;11.07;;;9.40;;
12962;SDS011;6546;49.882;8.666;2023-03-01T00:12:54;14.83;;;9.80;;
12962;SDS011;6546;49.882;8.666;2023-03-01T00:15:21;12.13;;;9.47;;
12962;SDS011;6546;49.882;8.666;2023-03-01T00:17:48;12.47;;;9.63;;
12962;SDS011;6546;49.882;8.666;2023-03-01T00:20:14;14.63;;;10.37;;
12962;SDS011;6546;49.882;8.666;2023-03-01T00:22:41;12.33;;;10.73;;
12962;SDS011;6546;49.882;8.666;2023-03-01T00:25:10;14.80;;;10.67;;
12962;SDS011;6546;49.882;8.666;2023-03-01T00:27:36;13.83;;;10.17;;
12962;SDS011;6546;49.882;8.666;2023-03-01T00:30:03;14.03;;;10.37;;
12962;SDS011;6546;49.882;8.666;2023-03-01T00:32:34;14.60;;;10.07;;
12962;SDS011;6546;49.882;8.666;2023-03-01T00:35:00;12.77;;;10.47;;
12962;SDS011;6546;49.882;8.666;2023-03-01T00:37:27;14.25;;;11.27;;
12962;SDS011;6546;49.882;8.666;2023-03-01T00:39:54;12.53;;;10.50;;
12962;SDS011;6546;49.882;8.666;2023-03-01T00:42:22;13.10;;;11.80;;
12962;SDS011;6546;49.882;8.666;2023-03-01T00:44:49;17.67;;;12.93;;
12962;SDS011;6546;49.882;8.666;2023-03-01T00:47:15;13.40;;;10.77;;
12962;SDS011;6546;49.882;8.666;2023-03-01T00:49:42;16.07;;;10.70;;
12962;SDS011;6546;49.882;8.666;2023-03-01T00:52:09;14.10;;;10.80;;
12962;SDS011;6546;49.882;8.666;2023-03-01T00:54:35;13.23;;;10.67;;
12962;SDS011;6546;49.882;8.666;2023-03-01T00:57:02;14.17;;;10.17;;
12962;SDS011;6546;49.882;8.666;2023-03-01T00:59:30;14.17;;;10.73;;
12962;SDS011;6546;49.882;8.666;2023-03-01T01:01:57;14.07;;;9.33;;
12962;SDS011;6546;49.882;8.666;2023-03-01T01:04:24;12.17;;;9.40;;
12962;SDS011;6546;49.882;8.666;2023-03-01T01:06:50;12.23;;;10.00;;
12962;SDS011;6546;49.882;8.666;2023-03-01T01:09:17;13.13;;;9.90;;
12962;SDS011;6546;49.882;8.666;2023-03-01T01:11:45;14.77;;;10.70;;
12962;SDS011;6546;49.882;8.666;2023-03-01T01:14:13;11.63;;;9.60;;
12962;SDS011;6546;49.882;8.666;2023-03-01T01:16:41;12.83;;;9.67;;
12962;SDS011;6546;49.882;8.666;2023-03-01T01:19:08;15.30;;;10.43;;
12962;SDS011;6546;49.882;8.666;2023-03-01T01:21:35;15.73;;;10.87;;
12962;SDS011;6546;49.882;8.666;2023-03-01T01:24:02;13.07;;;10.83;;
12962;SDS011;6546;49.882;8.666;2023-03-01T01:26:31;13.90;;;10.33;;
12962;SDS011;6546;49.882;8.666;2023-03-01T01:29:00;12.10;;;9.83;;
12962;SDS011;6546;49.882;8.666;2023-03-01T01:31:27;14.27;;;10.40;;
12962;SDS011;6546;49.882;8.666;2023-03-01T01:33:59;14.03;;;10.87;;
12962;SDS011;6546;49.882;8.666;2023-03-01T01:36:26;13.87;;;11.33;;
12962;SDS011;6546;49.882;8.666;2023-03-01T01:38:53;14.63;;;10.80;;
12962;SDS011;6546;49.882;8.666;2023-03-01T01:41:20;13.87;;;10.33;;
12962;SDS011;6546;49.882;8.666;2023-03-01T01:43:48;13.90;;;10.67;;
12962;SDS011;6546;49.882;8.666;2023-03-01T01:46:17;17.67;;;11.93;;
12962;SDS011;6546;49.882;8.666;2023-03-01T01:48:52;13.87;;;10.00;;
12962;SDS011;6546;49.882;8.666;2023-03-01T01:51:25;13.97;;;11.00;;
12962;SDS011;6546;49.882;8.666;2023-03-01T01:53:55;15.77;;;10.97;;
12962;SDS011;6546;49.882;8.666;2023-03-01T01:56:27;14.00;;;10.33;;
12962;SDS011;6546;49.882;8.666;2023-03-01T01:58:55;14.33;;;10.83;;
12962;SDS011;6546;49.882;8.666;2023-03-01T02:01:22;16.33;;;10.90;;
12962;SDS011;6546;49.882;8.666;2023-03-01T02:03:49;13.97;;;10.60;;
12962;SDS011;6546;49.882;8.666;2023-03-01T02:06:19;14.03;;;10.53;;
12962;SDS011;6546;49.882;8.666;2023-03-01T02:08:55;14.13;;;11.60;;
12962;SDS011;6546;49.882;8.666;2023-03-01T02:11:25;14.07;;;11.27;;
12962;SDS011;6546;49.882;8.666;2023-03-01T02:13:53;15.87;;;11.60;;
12962;SDS011;6546;49.882;8.666;2023-03-01T02:16:20;16.37;;;10.97;;
12962;SDS011;6546;49.882;8.666;2023-03-01T02:18:47;15.47;;;11.20;;
12962;SDS011;6546;49.882;8.666;2023-03-01T02:21:22;15.63;;;11.60;;
12962;SDS011;6546;49.882;8.666;2023-03-01T02:23:58;13.27;;;10.80;;
12962;SDS011;6546;49.882;8.666;2023-03-01T02:26:36;15.57;;;11.10;;
12962;SDS011;6546;49.882;8.666;2023-03-01T02:29:09;13.80;;;11.60;;
12962;SDS011;6546;49.882;8.666;2023-03-01T02:31:36;15.10;;;11.00;;
12962;SDS011;6546;49.882;8.666;2023-03-01T02:34:11;15.17;;;11.93;;
12962;SDS011;6546;49.882;8.666;2023-03-01T02:36:40;16.10;;;11.27;;
12962;SDS011;6546;49.882;8.666;2023-03-01T02:39:12;13.37;;;10.97;;
12962;SDS011;6546;49.882;8.666;2023-03-01T02:41:43;14.73;;;11.00;;
12962;SDS011;6546;49.882;8.666;2023-03-01T02:44:14;14.53;;;11.90;;
12962;SDS011;6546;49.882;8.666;2023-03-01T02:46:45;15.03;;;11.67;;
12962;SDS011;6546;49.882;8.666;2023-03-01T02:49:21;13.90;;;11.43;;
12962;SDS011;6546;49.882;8.666;2023-03-01T02:51:52;16.33;;;11.17;;
12962;SDS011;6546;49.882;8.666;2023-03-01T02:54:41;14.30;;;11.77;;
12962;SDS011;6546;49.882;8.666;2023-03-01T02:57:13;15.80;;;11.53;;
12962;SDS011;6546;49.882;8.666;2023-03-01T02:59:41;14.90;;;11.70;;
12962;SDS011;6546;49.882;8.666;2023-03-01T03:02:18;14.37;;;11.80;;
12962;SDS011;6546;49.882;8.666;2023-03-01T03:05:01;15.47;;;11.17;;
12962;SDS011;6546;49.882;8.666;2023-03-01T03:07:31;17.33;;;12.27;;
12962;SDS011;6546;49.882;8.666;2023-03-01T03:09:58;13.17;;;11.17;;
12962;SDS011;6546;49.882;8.666;2023-03-01T03:12:24;14.63;;;11.73;;
12962;SDS011;6546;49.882;8.666;2023-03-01T03:14:52;15.00;;;11.13;;
12962;SDS011;6546;49.882;8.666;2023-03-01T03:17:19;17.00;;;12.47;;
12962;SDS011;6546;49.882;8.666;2023-03-01T03:19:46;14.60;;;11.13;;
12962;SDS011;6546;49.882;8.666;2023-03-01T03:22:12;14.83;;;12.23;;
12962;SDS011;6546;49.882;8.666;2023-03-01T03:24:39;16.20;;;11.77;;
12962;SDS011;6546;49.882;8.666;2023-03-01T03:27:06;15.87;;;11.70;;
12962;SDS011;6546;49.882;8.666;2023-03-01T03:29:33;14.50;;;11.43;;
12962;SDS011;6546;49.882;8.666;2023-03-01T03:32:01;14.37;;;10.90;;
12962;SDS011;6546;49.882;8.666;2023-03-01T03:34:28;13.27;;;11.40;;
12962;SDS011;6546;49.882;8.666;2023-03-01T03:36:55;14.20;;;11.83;;
12962;SDS011;6546;49.882;8.666;2023-03-01T03:39:24;16.17;;;12.00;;
12962;SDS011;6546;49.882;8.666;2023-03-01T03:41:51;16.00;;;11.90;;
12962;SDS011;6546;49.882;8.666;2023-03-01T03:44:18;16.20;;;12.43;;
12962;SDS011;6546;49.882;8.666;2023-03-01T03:46:45;16.20;;;12.53;;
12962;SDS011;6546;49.882;8.666;2023-03-01T03:49:13;17.27;;;12.67;;
12962;SDS011;6546;49.882;8.666;2023-03-01T03:51:39;17.57;;;12.17;;
12962;SDS011;6546;49.882;8.666;2023-03-01T03:54:06;18.53;;;13.00;;
12962;SDS011;6546;49.882;8.666;2023-03-01T03:56:33;17.37;;;12.40;;
12962;SDS011;6546;49.882;8.666;2023-03-01T03:59:00;17.33;;;13.20;;
12962;SDS011;6546;49.882;8.666;2023-03-01T04:01:26;17.77;;;12.63;;
12962;SDS011;6546;49.882;8.666;2023-03-01T04:03:53;14.30;;;11.67;;
12962;SDS011;6546;49.882;8.666;2023-03-01T04:06:22;16.40;;;11.77;;
12962;SDS011;6546;49.882;8.666;2023-03-01T04:08:48;16.60;;;12.33;;
12962;SDS011;6546;49.882;8.666;2023-03-01T04:11:16;23.30;;;13.43;;
12962;SDS011;6546;49.882;8.666;2023-03-01T04:13:55;16.57;;;12.43;;
12962;SDS011;6546;49.882;8.666;2023-03-01T04:16:23;17.70;;;13.67;;
12962;SDS011;6546;49.882;8.666;2023-03-01T04:18:50;15.50;;;11.90;;
12962;SDS011;6546;49.882;8.666;2023-03-01T04:21:18;16.47;;;12.47;;
12962;SDS011;6546;49.882;8.666;2023-03-01T04:23:46;16.30;;;12.80;;
12962;SDS011;6546;49.882;8.666;2023-03-01T04:26:13;16.33;;;12.83;;
12962;SDS011;6546;49.882;8.666;2023-03-01T04:28:40;15.47;;;12.23;;
12962;SDS011;6546;49.882;8.666;2023-03-01T04:31:11;16.87;;;12.63;;
12962;SDS011;6546;49.882;8.666;2023-03-01T04:33:39;17.37;;;13.57;;
12962;SDS011;6546;49.882;8.666;2023-03-01T04:36:07;17.90;;;13.20;;
12962;SDS011;6546;49.882;8.666;2023-03-01T04:38:35;19.00;;;13.23;;
12962;SDS011;6546;49.882;8.666;2023-03-01T04:41:04;19.87;;;13.50;;
12962;SDS011;6546;49.882;8.666;2023-03-01T04:43:31;16.97;;;12.27;;
12962;SDS011;6546;49.882;8.666;2023-03-01T04:46:02;16.67;;;12.77;;
12962;SDS011;6546;49.882;8.666;2023-03-01T04:48:31;17.17;;;13.23;;
12962;SDS011;6546;49.882;8.666;2023-03-01T04:50:58;17.97;;;13.10;;
12962;SDS011;6546;49.882;8.666;2023-03-01T04:53:28;16.70;;;13.07;;
12962;SDS011;6546;49.882;8.666;2023-03-01T04:55:55;19.17;;;14.07;;
12962;SDS011;6546;49.882;8.666;2023-03-01T04:58:23;19.53;;;13.63;;
12962;SDS011;6546;49.882;8.666;2023-03-01T05:00:51;16.90;;;13.40;;
12962;SDS011;6546;49.882;8.666;2023-03-01T05:03:18;18.13;;;13.27;;
12962;SDS011;6546;49.882;8.666;2023-03-01T05:05:46;17.87;;;13.73;;
12962;SDS011;6546;49.882;8.666;2023-03-01T05:08:14;17.80;;;13.67;;
12962;SDS011;6546;49.882;8.666;2023-03-01T05:10:44;18.43;;;13.27;;
12962;SDS011;6546;49.882;8.666;2023-03-01T05:13:15;18.27;;;13.53;;
12962;SDS011;6546;49.882;8.666;2023-03-01T05:15:47;18.47;;;14.27;;
12962;SDS011;6546;49.882;8.666;2023-03-01T05:18:15;20.40;;;13.80;;
12962;SDS011;6546;49.882;8.666;2023-03-01T05:20:42;16.77;;;13.40;;
12962;SDS011;6546;49.882;8.666;2023-03-01T05:23:09;18.57;;;13.83;;
12962;SDS011;6546;49.882;8.666;2023-03-01T05:25:36;18.33;;;13.23;;
12962;SDS011;6546;49.882;8.666;2023-03-01T05:28:05;20.60;;;14.23;;
12962;SDS011;6546;49.882;8.666;2023-03-01T05:30:32;17.67;;;13.60;;
12962;SDS011;6546;49.882;8.666;2023-03-01T05:33:01;17.97;;;14.03;;
12962;SDS011;6546;49.882;8.666;2023-03-01T05:35:28;16.83;;;13.50;;
12962;SDS011;6546;49.882;8.666;2023-03-01T05:37:57;18.77;;;14.13;;
12962;SDS011;6546;49.882;8.666;2023-03-01T05:40:26;20.57;;;13.77;;
12962;SDS011;6546;49.882;8.666;2023-03-01T05:42:54;17.00;;;12.73;;
12962;SDS011;6546;49.882;8.666;2023-03-01T05:45:22;20.73;;;14.13;;
12962;SDS011;6546;49.882;8.666;2023-03-01T05:47:50;21.53;;;14.47;;
12962;SDS011;6546;49.882;8.666;2023-03-01T05:50:19;17.90;;;13.63;;
12962;SDS011;6546;49.882;8.666;2023-03-01T05:52:48;18.37;;;14.07;;
12962;SDS011;6546;49.882;8.666;2023-03-01T05:55:17;20.30;;;14.77;;
12962;SDS011;6546;49.882;8.666;2023-03-01T05:57:45;19.83;;;14.73;;
12962;SDS011;6546;49.882;8.666;2023-03-01T06:00:13;17.47;;;13.43;;
12962;SDS011;6546;49.882;8.666;2023-03-01T06:02:41;18.90;;;13.93;;
12962;SDS011;6546;49.882;8.666;2023-03-01T06:05:08;18.17;;;13.23;;
12962;SDS011;6546;49.882;8.666;2023-03-01T06:07:37;17.73;;;13.10;;
12962;SDS011;6546;49.882;8.666;2023-03-01T06:10:05;20.00;;;13.77;;
12962;SDS011;6546;49.882;8.666;2023-03-01T06:12:33;19.33;;;13.53;;
12962;SDS011;6546;49.882;8.666;2023-03-01T06:15:00;17.97;;;13.43;;
12962;SDS011;6546;49.882;8.666;2023-03-01T06:17:28;17.90;;;13.50;;
12962;SDS011;6546;49.882;8.666;2023-03-01T06:19:56;17.47;;;14.37;;
12962;SDS011;6546;49.882;8.666;2023-03-01T06:22:23;18.17;;;14.23;;
12962;SDS011;6546;49.882;8.666;2023-03-01T06:24:51;18.40;;;13.87;;
12962;SDS011;6546;49.882;8.666;2023-03-01T06:27:17;20.00;;;14.47;;
12962;SDS011;6546;49.882;8.666;2023-03-01T06:29:44;19.23;;;14.10;;
12962;SDS011;6546;49.882;8.666;2023-03-01T06:32:11;17.53;;;14.07;;
12962;SDS011;6546;49.882;8.666;2023-03-01T06:34:37;20.07;;;14.70;;
12962;SDS011;6546;49.882;8.666;2023-03-01T06:37:04;19.37;;;15.00;;
12962;SDS011;6546;49.882;8.666;2023-03-01T06:39:32;19.07;;;14.57;;
12962;SDS011;6546;49.882;8.666;2023-03-01T06:42:00;20.53;;;13.90;;
12962;SDS011;6546;49.882;8.666;2023-03-01T06:44:27;20.67;;;14.40;;
12962;SDS011;6546;49.882;8.666;2023-03-01T06:46:53;18.73;;;13.80;;
12962;SDS011;6546;49.882;8.666;2023-03-01T06:49:20;18.07;;;13.10;;
12962;SDS011;6546;49.882;8.666;2023-03-01T06:51:47;19.37;;;14.43;;
12962;SDS011;6546;49.882;8.666;2023-03-01T06:54:14;19.90;;;14.67;;
12962;SDS011;6546;49.882;8.666;2023-03-01T06:56:40;20.40;;;14.73;;
12962;SDS011;6546;49.882;8.666;2023-03-01T06:59:08;17.87;;;14.20;;
12962;SDS011;6546;49.882;8.666;2023-03-01T07:01:35;19.93;;;14.17;;
12962;SDS011;6546;49.882;8.666;2023-03-01T07:04:01;19.47;;;13.83;;
12962;SDS011;6546;49.882;8.666;2023-03-01T07:06:28;19.97;;;14.53;;
12962;SDS011;6546;49.882;8.666;2023-03-01T07:08:54;20.07;;;14.57;;
12962;SDS011;6546;49.882;8.666;2023-03-01T07:11:21;19.93;;;14.83;;
12962;SDS011;6546;49.882;8.666;2023-03-01T07:13:48;18.10;;;13.40;;
12962;SDS011;6546;49.882;8.666;2023-03-01T07:16:16;19.13;;;14.17;;
12962;SDS011;6546;49.882;8.666;2023-03-01T07:18:42;19.13;;;13.63;;
12962;SDS011;6546;49.882;8.666;2023-03-01T07:21:11;21.00;;;14.20;;
12962;SDS011;6546;49.882;8.666;2023-03-01T07:23:39;19.97;;;13.97;;
12962;SDS011;6546;49.882;8.666;2023-03-01T07:26:06;21.60;;;13.63;;
12962;SDS011;6546;49.882;8.666;2023-03-01T07:28:32;23.07;;;14.50;;
12962;SDS011;6546;49.882;8.666;2023-03-01T07:31:01;20.83;;;14.17;;
12962;SDS011;6546;49.882;8.666;2023-03-01T07:33:30;19.83;;;14.77;;
12962;SDS011;6546;49.882;8.666;2023-03-01T07:35:57;22.93;;;13.27;;
12962;SDS011;6546;49.882;8.666;2023-03-01T07:38:25;18.83;;;13.87;;
12962;SDS011;6546;49.882;8.666;2023-03-01T07:40:51;16.60;;;14.20;;
12962;SDS011;6546;49.882;8.666;2023-03-01T07:43:18;18.87;;;14.10;;
12962;SDS011;6546;49.882;8.666;2023-03-01T07:45:45;18.20;;;13.57;;
12962;SDS011;6546;49.882;8.666;2023-03-01T07:48:12;19.33;;;14.00;;
12962;SDS011;6546;49.882;8.666;2023-03-01T07:50:40;17.23;;;13.07;;
12962;SDS011;6546;49.882;8.666;2023-03-01T07:53:07;17.00;;;13.10;;
12962;SDS011;6546;49.882;8.666;2023-03-01T07:55:34;18.77;;;14.13;;
12962;SDS011;6546;49.882;8.666;2023-03-01T07:58:00;18.43;;;13.37;;
12962;SDS011;6546;49.882;8.666;2023-03-01T08:00:27;17.40;;;13.97;;
12962;SDS011;6546;49.882;8.666;2023-03-01T08:02:53;20.07;;;14.77;;
12962;SDS011;6546;49.882;8.666;2023-03-01T08:05:20;18.87;;;14.17;;
12962;SDS011;6546;49.882;8.666;2023-03-01T08:07:49;17.67;;;13.67;;
12962;SDS011;6546;49.882;8.666;2023-03-01T08:10:16;17.40;;;13.07;;
12962;SDS011;6546;49.882;8.666;2023-03-01T08:12:43;17.73;;;14.07;;
12962;SDS011;6546;49.882;8.666;2023-03-01T08:15:10;16.00;;;13.50;;
12962;SDS011;6546;49.882;8.666;2023-03-01T08:17:37;16.00;;;13.20;;
12962;SDS011;6546;49.882;8.666;2023-03-01T08:20:04;18.13;;;13.57;;
12962;SDS011;6546;49.882;8.666;2023-03-01T08:22:32;18.63;;;13.77;;
12962;SDS011;6546;49.882;8.666;2023-03-01T08:25:00;17.73;;;12.70;;
12962;SDS011;6546;49.882;8.666;2023-03-01T08:27:26;22.70;;;13.93;;
12962;SDS011;6546;49.882;8.666;2023-03-01T08:29:53;17.80;;;13.23;;
12962;SDS011;6546;49.882;8.666;2023-03-01T08:32:19;20.80;;;13.40;;
12962;SDS011;6546;49.882;8.666;2023-03-01T08:34:46;33.60;;;16.03;;
12962;SDS011;6546;49.882;8.666;2023-03-01T08:37:13;18.23;;;13.47;;
12962;SDS011;6546;49.882;8.666;2023-03-01T08:39:39;27.33;;;14.60;;
12962;SDS011;6546;49.882;8.666;2023-03-01T08:42:07;19.70;;;12.87;;
12962;SDS011;6546;49.882;8.666;2023-03-01T08:44:34;31.80;;;15.87;;
12962;SDS011;6546;49.882;8.666;2023-03-01T08:47:05;20.67;;;13.23;;
12962;SDS011;6546;49.882;8.666;2023-03-01T08:49:32;19.67;;;13.80;;
12962;SDS011;6546;49.882;8.666;2023-03-01T08:51:59;18.27;;;12.70;;
12962;SDS011;6546;49.882;8.666;2023-03-01T08:54:26;17.37;;;12.70;;
12962;SDS011;6546;49.882;8.666;2023-03-01T08:56:52;17.97;;;14.00;;
12962;SDS011;6546;49.882;8.666;2023-03-01T08:59:20;20.50;;;14.10;;
12962;SDS011;6546;49.882;8.666;2023-03-01T09:01:47;20.93;;;13.70;;
12962;SDS011;6546;49.882;8.666;2023-03-01T09:04:14;18.50;;;13.63;;
12962;SDS011;6546;49.882;8.666;2023-03-01T09:06:41;23.37;;;13.67;;
12962;SDS011;6546;49.882;8.666;2023-03-01T09:09:11;18.43;;;13.70;;
12962;SDS011;6546;49.882;8.666;2023-03-01T09:11:39;19.67;;;13.50;;
12962;SDS011;6546;49.882;8.666;2023-03-01T09:14:06;16.87;;;13.97;;
12962;SDS011;6546;49.882;8.666;2023-03-01T09:16:34;18.03;;;14.23;;
12962;SDS011;6546;49.882;8.666;2023-03-01T09:19:01;18.97;;;14.30;;
12962;SDS011;6546;49.882;8.666;2023-03-01T09:21:29;17.33;;;13.37;;
12962;SDS011;6546;49.882;8.666;2023-03-01T09:23:56;16.83;;;13.57;;
12962;SDS011;6546;49.882;8.666;2023-03-01T09:26:23;18.20;;;13.80;;
12962;SDS011;6546;49.882;8.666;2023-03-01T09:28:52;19.07;;;13.57;;
12962;SDS011;6546;49.882;8.666;2023-03-01T09:31:21;18.80;;;13.37;;
12962;SDS011;6546;49.882;8.666;2023-03-01T09:33:51;18.77;;;14.43;;
12962;SDS011;6546;49.882;8.666;2023-03-01T09:36:19;18.17;;;13.67;;
12962;SDS011;6546;49.882;8.666;2023-03-01T09:38:48;17.77;;;13.63;;
12962;SDS011;6546;49.882;8.666;2023-03-01T09:44:10;15.83;;;13.13;;
12962;SDS011;6546;49.882;8.666;2023-03-01T09:46:47;25.13;;;15.43;;
12962;SDS011;6546;49.882;8.666;2023-03-01T09:49:16;23.00;;;14.50;;
12962;SDS011;6546;49.882;8.666;2023-03-01T09:51:47;24.30;;;14.83;;
12962;SDS011;6546;49.882;8.666;2023-03-01T09:54:21;16.10;;;12.77;;
12962;SDS011;6546;49.882;8.666;2023-03-01T09:56:52;19.00;;;13.83;;
12962;SDS011;6546;49.882;8.666;2023-03-01T09:59:28;17.00;;;13.23;;
12962;SDS011;6546;49.882;8.666;2023-03-01T10:02:00;20.50;;;14.03;;
12962;SDS011;6546;49.882;8.666;2023-03-01T10:04:41;17.83;;;13.40;;
12962;SDS011;6546;49.882;8.666;2023-03-01T10:07:16;18.17;;;14.67;;
12962;SDS011;6546;49.882;8.666;2023-03-01T10:09:51;20.40;;;13.90;;
12962;SDS011;6546;49.882;8.666;2023-03-01T10:12:19;21.60;;;14.60;;
12962;SDS011;6546;49.882;8.666;2023-03-01T10:14:51;20.37;;;13.83;;
12962;SDS011;6546;49.882;8.666;2023-03-01T10:17:27;17.03;;;14.37;;
12962;SDS011;6546;49.882;8.666;2023-03-01T10:20:10;19.93;;;14.60;;
12962;SDS011;6546;49.882;8.666;2023-03-01T10:22:42;20.17;;;14.53;;
12962;SDS011;6546;49.882;8.666;2023-03-01T10:25:13;19.57;;;14.33;;
12962;SDS011;6546;49.882;8.666;2023-03-01T10:27:43;20.73;;;15.60;;
12962;SDS011;6546;49.882;8.666;2023-03-01T10:30:19;21.07;;;15.10;;
12962;SDS011;6546;49.882;8.666;2023-03-01T10:32:48;17.00;;;13.97;;
12962;SDS011;6546;49.882;8.666;2023-03-01T10:35:20;19.53;;;14.33;;
12962;SDS011;6546;49.882;8.666;2023-03-01T10:37:58;18.77;;;14.40;;
12962;SDS011;6546;49.882;8.666;2023-03-01T10:40:29;19.73;;;14.80;;
12962;SDS011;6546;49.882;8.666;2023-03-01T10:42:57;19.17;;;14.47;;
12962;SDS011;6546;49.882;8.666;2023-03-01T10:45:30;18.23;;;14.20;;
12962;SDS011;6546;49.882;8.666;2023-03-01T10:48:06;19.40;;;14.33;;
12962;SDS011;6546;49.882;8.666;2023-03-01T10:50:40;19.20;;;13.87;;
12962;SDS011;6546;49.882;8.666;2023-03-01T10:53:16;19.27;;;15.33;;
12962;SDS011;6546;49.882;8.666;2023-03-01T10:55:48;18.73;;;14.23;;
12962;SDS011;6546;49.882;8.666;2023-03-01T10:58:23;17.20;;;13.67;;
12962;SDS011;6546;49.882;8.666;2023-03-01T11:00:51;19.20;;;14.30;;
12962;SDS011;6546;49.882;8.666;2023-03-01T11:03:20;19.87;;;13.90;;
12962;SDS011;6546;49.882;8.666;2023-03-01T11:05:56;18.50;;;13.50;;
12962;SDS011;6546;49.882;8.666;2023-03-01T11:11:14;20.37;;;14.27;;
12962;SDS011;6546;49.882;8.666;2023-03-01T11:13:47;17.50;;;13.33;;
12962;SDS011;6546;49.882;8.666;2023-03-01T11:16:24;17.23;;;12.83;;
12962;SDS011;6546;49.882;8.666;2023-03-01T11:19:03;18.33;;;12.63;;
12962;SDS011;6546;49.882;8.666;2023-03-01T11:21:42;17.83;;;13.20;;
12962;SDS011;6546;49.882;8.666;2023-03-01T11:24:16;14.30;;;11.60;;
12962;SDS011;6546;49.882;8.666;2023-03-01T11:26:46;13.57;;;11.80;;
12962;SDS011;6546;49.882;8.666;2023-03-01T11:29:18;15.17;;;12.70;;
12962;SDS011;6546;49.882;8.666;2023-03-01T11:31:54;17.67;;;12.43;;
12962;SDS011;6546;49.882;8.666;2023-03-01T11:34:28;16.77;;;13.37;;
12962;SDS011;6546;49.882;8.666;2023-03-01T11:37:07;19.53;;;13.00;;
12962;SDS011;6546;49.882;8.666;2023-03-01T11:39:42;17.50;;;12.80;;
12962;SDS011;6546;49.882;8.666;2023-03-01T11:42:17;16.53;;;11.73;;
12962;SDS011;6546;49.882;8.666;2023-03-01T11:44:46;16.93;;;13.13;;
12962;SDS011;6546;49.882;8.666;2023-03-01T11:47:21;15.83;;;12.90;;
12962;SDS011;6546;49.882;8.666;2023-03-01T11:50:02;17.93;;;13.47;;
12962;SDS011;6546;49.882;8.666;2023-03-01T11:52:42;16.33;;;12.93;;
12962;SDS011;6546;49.882;8.666;2023-03-01T11:55:24;16.53;;;13.17;;
12962;SDS011;6546;49.882;8.666;2023-03-01T11:58:01;15.00;;;12.47;;
12962;SDS011;6546;49.882;8.666;2023-03-01T12:00:52;15.90;;;12.63;;
12962;SDS011;6546;49.882;8.666;2023-03-01T12:03:34;17.20;;;12.80;;
12962;SDS011;6546;49.882;8.666;2023-03-01T12:06:28;16.63;;;12.53;;
12962;SDS011;6546;49.882;8.666;2023-03-01T12:09:12;17.37;;;12.47;;
12962;SDS011;6546;49.882;8.666;2023-03-01T12:11:51;18.27;;;12.87;;
12962;SDS011;6546;49.882;8.666;2023-03-01T12:14:33;19.00;;;11.73;;
12962;SDS011;6546;49.882;8.666;2023-03-01T12:20:11;14.80;;;11.93;;
12962;SDS011;6546;49.882;8.666;2023-03-01T12:22:45;13.70;;;11.70;;
12962;SDS011;6546;49.882;8.666;2023-03-01T12:25:29;14.53;;;11.50;;
12962;SDS011;6546;49.882;8.666;2023-03-01T12:31:08;13.83;;;11.90;;
12962;SDS011;6546;49.882;8.666;2023-03-01T12:33:53;16.20;;;11.33;;
12962;SDS011;6546;49.882;8.666;2023-03-01T12:36:35;12.80;;;10.47;;
12962;SDS011;6546;49.882;8.666;2023-03-01T12:39:19;13.37;;;10.40;;
12962;SDS011;6546;49.882;8.666;2023-03-01T12:42:03;13.23;;;10.63;;
12962;SDS011;6546;49.882;8.666;2023-03-01T12:44:48;13.80;;;10.47;;
12962;SDS011;6546;49.882;8.666;2023-03-01T12:47:36;14.10;;;10.37;;
12962;SDS011;6546;49.882;8.666;2023-03-01T12:50:16;13.53;;;10.40;;
12962;SDS011;6546;49.882;8.666;2023-03-01T12:52:46;13.63;;;10.57;;
12962;SDS011;6546;49.882;8.666;2023-03-01T12:55:19;12.80;;;10.20;;
12962;SDS011;6546;49.882;8.666;2023-03-01T12:58:01;12.93;;;10.83;;
12962;SDS011;6546;49.882;8.666;2023-03-01T13:00:37;11.90;;;10.00;;
12962;SDS011;6546;49.882;8.666;2023-03-01T13:03:12;12.37;;;9.77;;
12962;SDS011;6546;49.882;8.666;2023-03-01T13:05:49;10.23;;;9.23;;
12962;SDS011;6546;49.882;8.666;2023-03-01T13:08:29;11.30;;;9.63;;
12962;SDS011;6546;49.882;8.666;2023-03-01T13:11:03;12.40;;;10.13;;
12962;SDS011;6546;49.882;8.666;2023-03-01T13:13:33;10.30;;;9.17;;
12962;SDS011;6546;49.882;8.666;2023-03-01T13:19:07;12.47;;;9.30;;
12962;SDS011;6546;49.882;8.666;2023-03-01T13:21:39;10.47;;;8.63;;
12962;SDS011;6546;49.882;8.666;2023-03-01T13:29:56;10.87;;;9.43;;
12962;SDS011;6546;49.882;8.666;2023-03-01T13:32:26;12.90;;;10.23;;
12962;SDS011;6546;49.882;8.666;2023-03-01T13:34:55;13.37;;;10.53;;
12962;SDS011;6546;49.882;8.666;2023-03-01T13:37:24;13.53;;;9.63;;
12962;SDS011;6546;49.882;8.666;2023-03-01T13:39:56;11.13;;;9.80;;
12962;SDS011;6546;49.882;8.666;2023-03-01T13:42:39;12.30;;;9.90;;
12962;SDS011;6546;49.882;8.666;2023-03-01T13:45:22;12.30;;;9.53;;
12962;SDS011;6546;49.882;8.666;2023-03-01T13:47:54;12.33;;;9.60;;
12962;SDS011;6546;49.882;8.666;2023-03-01T13:50:25;11.00;;;9.43;;
12962;SDS011;6546;49.882;8.666;2023-03-01T13:52:55;15.47;;;10.17;;
12962;SDS011;6546;49.882;8.666;2023-03-01T13:55:25;14.33;;;9.93;;
12962;SDS011;6546;49.882;8.666;2023-03-01T13:57:57;11.47;;;9.60;;
12962;SDS011;6546;49.882;8.666;2023-03-01T14:00:29;10.97;;;9.33;;
12962;SDS011;6546;49.882;8.666;2023-03-01T14:03:02;12.97;;;8.83;;
12962;SDS011;6546;49.882;8.666;2023-03-01T14:05:31;13.47;;;9.10;;
12962;SDS011;6546;49.882;8.666;2023-03-01T14:07:58;11.00;;;9.10;;
12962;SDS011;6546;49.882;8.666;2023-03-01T14:10:25;11.97;;;9.53;;
12962;SDS011;6546;49.882;8.666;2023-03-01T14:13:02;11.80;;;9.37;;
12962;SDS011;6546;49.882;8.666;2023-03-01T14:15:45;11.70;;;8.70;;
12962;SDS011;6546;49.882;8.666;2023-03-01T14:18:23;13.77;;;9.47;;
12962;SDS011;6546;49.882;8.666;2023-03-01T14:21:01;12.20;;;9.33;;
12962;SDS011;6546;49.882;8.666;2023-03-01T14:23:34;11.63;;;8.83;;
12962;SDS011;6546;49.882;8.666;2023-03-01T14:26:02;11.47;;;9.13;;
12962;SDS011;6546;49.882;8.666;2023-03-01T14:28:30;11.93;;;9.53;;
12962;SDS011;6546;49.882;8.666;2023-03-01T14:31:01;12.67;;;9.20;;
12962;SDS011;6546;49.882;8.666;2023-03-01T14:33:28;16.77;;;10.23;;
12962;SDS011;6546;49.882;8.666;2023-03-01T14:35:59;11.47;;;9.13;;
12962;SDS011;6546;49.882;8.666;2023-03-01T14:38:31;12.23;;;9.00;;
12962;SDS011;6546;49.882;8.666;2023-03-01T14:41:02;12.43;;;8.93;;
12962;SDS011;6546;49.882;8.666;2023-03-01T14:43:31;11.40;;;8.90;;
12962;SDS011;6546;49.882;8.666;2023-03-01T14:45:58;13.87;;;8.17;;
12962;SDS011;6546;49.882;8.666;2023-03-01T14:48:27;11.40;;;9.27;;
12962;SDS011;6546;49.882;8.666;2023-03-01T14:50:55;10.40;;;8.67;;
12962;SDS011;6546;49.882;8.666;2023-03-01T14:53:24;13.40;;;8.97;;
12962;SDS011;6546;49.882;8.666;2023-03-01T14:55:54;10.97;;;8.83;;
12962;SDS011;6546;49.882;8.666;2023-03-01T14:58:22;14.47;;;10.00;;
12962;SDS011;6546;49.882;8.666;2023-03-01T15:00:51;11.80;;;9.20;;
12962;SDS011;6546;49.882;8.666;2023-03-01T15:03:23;12.37;;;9.67;;
12962;SDS011;6546;49.882;8.666;2023-03-01T15:05:55;10.57;;;9.47;;
12962;SDS011;6546;49.882;8.666;2023-03-01T15:08:23;12.73;;;9.77;;
12962;SDS011;6546;49.882;8.666;2023-03-01T15:10:58;14.40;;;9.70;;
12962;SDS011;6546;49.882;8.666;2023-03-01T15:13:29;12.03;;;9.63;;